Time;durP1;ratioP1;P1;durP2;ratioP2;P2;SDS_P1;SDS_P2;PMS_P1;PMS_P2;Temp;Humidity;BMP_temperature;BMP_pressure;BME280_temperature;BME280_humidity;BME280_pressure;Samples;Min_cycle;Max_cycle;Signal;HPM_P1;HPM_P2
2022/06/20 00:01:08;;;;;;;8.15;1.90;;;18.50;81.80;;;;;;5034004;28;20025;-68
2022/06/20 00:03:41;;;;;;;10.98;2.20;;;18.50;82.20;;;;;;5016222;28;20378;-68
2022/06/20 00:06:12;;;;;;;7.78;2.13;;;18.50;82.30;;;;;;5033590;28;20084;-67
2022/06/20 00:08:38;;;;;;;7.32;2.00;;;18.50;82.30;;;;;;5034118;28;20465;-67
2022/06/20 00:11:04;;;;;;;8.55;1.65;;;18.50;82.40;;;;;;5033520;28;20482;-71
2022/06/20 00:13:34;;;;;;;7.80;1.70;;;18.60;82.80;;;;;;5033904;28;20029;-73
2022/06/20 00:16:01;;;;;;;8.13;1.75;;;18.50;82.50;;;;;;5033527;28;20041;-68
2022/06/20 00:18:28;;;;;;;9.93;2.17;;;18.50;82.90;;;;;;5034033;28;20382;-67
2022/06/20 00:20:54;;;;;;;9.52;2.22;;;18.50;82.80;;;;;;5033778;28;20021;-73
2022/06/20 00:23:20;;;;;;;8.95;2.38;;;18.50;82.10;;;;;;5033789;28;20029;-67
2022/06/20 00:25:46;;;;;;;8.18;2.25;;;18.50;81.90;;;;;;5033293;28;20036;-69
2022/06/20 00:28:13;;;;;;;9.35;2.00;;;18.50;81.70;;;;;;5033700;28;20491;-68
2022/06/20 00:30:40;;;;;;;9.95;2.00;;;18.50;81.90;;;;;;5033354;28;20025;-67
2022/06/20 00:33:06;;;;;;;6.60;1.90;;;18.40;81.90;;;;;;5033538;28;20013;-68
2022/06/20 00:35:33;;;;;;;9.80;2.28;;;18.40;82.20;;;;;;5033558;28;20056;-69
2022/06/20 00:38:02;;;;;;;9.13;2.17;;;18.30;82.20;;;;;;5033251;28;20397;-70
2022/06/20 00:40:41;;;;;;;6.07;1.75;;;18.40;82.10;;;;;;5032746;28;20057;-68
2022/06/20 00:43:11;;;;;;;8.80;2.22;;;18.40;82.10;;;;;;5033061;28;20120;-71
2022/06/20 00:45:41;;;;;;;7.63;2.15;;;18.40;82.50;;;;;;5033392;28;20025;-74
2022/06/20 00:48:14;;;;;;;9.10;2.13;;;18.30;82.70;;;;;;5033290;28;20033;-73
2022/06/20 00:50:39;;;;;;;10.30;2.05;;;18.40;82.30;;;;;;5033540;28;20108;-74
2022/06/20 00:53:21;;;;;;;8.10;1.85;;;18.20;83.00;;;;;;5032980;28;20049;-74
2022/06/20 00:55:53;;;;;;;9.85;2.05;;;18.20;83.00;;;;;;5033474;28;20029;-74
2022/06/20 00:58:21;;;;;;;7.53;1.65;;;18.20;83.10;;;;;;5033338;28;20049;-74
2022/06/20 01:00:47;;;;;;;8.55;1.73;;;18.20;83.10;;;;;;5033609;28;20053;-70
2022/06/20 01:03:20;;;;;;;6.88;1.80;;;18.20;83.50;;;;;;5033690;28;20053;-68
2022/06/20 01:06:08;;;;;;;12.55;2.40;;;18.30;83.70;;;;;;5033091;28;20482;-67
2022/06/20 01:08:58;;;;;;;7.88;2.22;;;18.20;83.80;;;;;;5032655;28;20022;-68
2022/06/20 01:11:31;;;;;;;4.72;1.48;;;18.20;83.80;;;;;;5015581;28;20100;-67
2022/06/20 01:13:57;;;;;;;8.70;2.05;;;18.20;83.60;;;;;;5032996;28;20033;-67
2022/06/20 01:16:29;;;;;;;7.13;2.05;;;18.20;83.70;;;;;;5036682;28;20121;-67
2022/06/20 01:19:00;;;;;;;5.97;1.85;;;18.10;83.60;;;;;;5037029;28;20474;-67
2022/06/20 01:21:32;;;;;;;8.68;1.80;;;18.10;82.90;;;;;;5037425;28;20021;-68
2022/06/20 01:24:20;;;;;;;6.77;1.27;;;18.10;82.70;;;;;;5036723;28;20041;-67
2022/06/20 01:26:54;;;;;;;5.55;1.17;;;18.00;82.00;;;;;;5036885;28;20346;-68
2022/06/20 01:29:20;;;;;;;7.55;1.58;;;18.10;82.00;;;;;;5037038;28;20474;-67
2022/06/20 01:31:58;;;;;;;9.25;1.85;;;18.20;81.50;;;;;;5019225;28;20068;-68
2022/06/20 01:34:24;;;;;;;8.13;1.80;;;18.10;81.70;;;;;;5036987;28;20033;-67
2022/06/20 01:39:40;;;;;;;10.95;1.63;;;18.00;81.80;;;;;;5037113;28;20120;-74
2022/06/20 01:42:19;;;;;;;6.65;1.52;;;18.00;81.80;;;;;;5036354;28;20038;-73
2022/06/20 01:44:53;;;;;;;9.25;2.28;;;18.10;81.80;;;;;;5036703;28;20022;-74
2022/06/20 01:47:19;;;;;;;9.27;1.90;;;18.00;82.40;;;;;;5036543;28;20029;-74
2022/06/20 01:49:48;;;;;;;8.10;1.90;;;18.00;83.20;;;;;;5036728;28;20022;-74
2022/06/20 01:52:17;;;;;;;9.23;1.75;;;18.10;83.60;;;;;;5036312;28;20029;-74
2022/06/20 01:54:52;;;;;;;5.93;1.40;;;18.00;83.90;;;;;;5036518;28;20419;-72
2022/06/20 01:57:20;;;;;;;6.50;1.50;;;18.00;84.10;;;;;;5033130;28;20446;-71
2022/06/20 01:59:55;;;;;;;3.78;1.02;;;17.90;83.80;;;;;;5019004;28;20105;-68
2022/06/20 02:02:21;;;;;;;6.90;1.55;;;17.90;83.60;;;;;;5015792;28;20352;-69
2022/06/20 02:04:47;;;;;;;4.68;1.33;;;17.90;83.10;;;;;;5016114;28;20152;-68
2022/06/20 02:07:13;;;;;;;6.72;1.35;;;18.00;82.90;;;;;;5016182;28;20022;-69
2022/06/20 02:09:40;;;;;;;8.50;1.30;;;17.90;83.20;;;;;;5019936;28;20487;-74
2022/06/20 02:12:08;;;;;;;5.28;1.08;;;17.80;83.60;;;;;;5019562;28;20045;-74
2022/06/20 02:14:39;;;;;;;5.97;1.60;;;17.80;83.70;;;;;;5016270;28;20049;-68
2022/06/20 02:17:19;;;;;;;4.67;1.00;;;17.80;83.60;;;;;;5016292;28;20511;-68
2022/06/20 02:19:49;;;;;;;8.15;1.13;;;18.00;83.80;;;;;;5016328;28;20046;-67
2022/06/20 02:22:17;;;;;;;5.00;1.35;;;17.90;83.90;;;;;;5015987;28;20119;-67
2022/06/20 02:24:47;;;;;;;5.97;2.00;;;18.00;83.10;;;;;;5016087;28;20157;-74
2022/06/20 02:27:38;;;;;;;7.13;1.70;;;17.90;83.10;;;;;;5016116;28;20033;-74
2022/06/20 02:30:07;;;;;;;6.63;1.52;;;17.90;83.60;;;;;;5015914;28;20021;-68
2022/06/20 02:32:38;;;;;;;9.43;2.08;;;17.80;84.30;;;;;;5015836;28;20188;-73
2022/06/20 02:35:07;;;;;;;4.90;1.60;;;17.80;84.90;;;;;;5015532;28;20014;-74
2022/06/20 02:37:35;;;;;;;6.07;1.40;;;17.90;85.00;;;;;;5015953;28;20539;-74
2022/06/20 02:40:03;;;;;;;5.80;1.15;;;17.80;85.70;;;;;;5016010;28;20046;-74
2022/06/20 02:42:34;;;;;;;6.25;1.50;;;17.70;86.00;;;;;;5015506;28;20033;-74
2022/06/20 02:45:03;;;;;;;5.50;1.63;;;17.80;86.10;;;;;;4998013;28;20022;-74
2022/06/20 02:47:30;;;;;;;4.70;1.83;;;17.70;86.40;;;;;;5015642;28;20048;-74
2022/06/20 02:49:59;;;;;;;6.25;1.52;;;17.80;86.50;;;;;;5015375;28;20022;-73
2022/06/20 02:52:46;;;;;;;4.20;1.13;;;17.80;86.70;;;;;;5015400;28;20030;-74
2022/06/20 02:55:14;;;;;;;5.88;1.48;;;17.70;86.90;;;;;;5015347;28;20022;-73
2022/06/20 02:57:47;;;;;;;10.20;2.08;;;17.70;87.20;;;;;;5015676;28;20129;-74
2022/06/20 03:00:20;;;;;;;6.63;1.50;;;17.70;87.40;;;;;;5015451;28;20038;-74
2022/06/20 03:02:50;;;;;;;8.05;1.58;;;17.60;87.50;;;;;;5015409;28;20018;-72
2022/06/20 03:05:17;;;;;;;5.25;1.30;;;17.60;87.50;;;;;;5015126;28;20030;-73
2022/06/20 03:07:44;;;;;;;6.38;1.52;;;17.60;87.40;;;;;;5015460;28;20395;-73
2022/06/20 03:10:54;;;;;;;6.10;1.70;;;17.60;87.60;;;;;;5014992;28;20022;-74
2022/06/20 03:13:22;;;;;;;8.18;1.52;;;17.50;87.70;;;;;;4916726;29;20047;-74
2022/06/20 03:15:50;;;;;;;6.10;1.50;;;17.50;88.10;;;;;;4900701;29;20181;-74
2022/06/20 03:18:20;;;;;;;9.07;2.15;;;17.50;88.20;;;;;;4965691;28;20037;-73
2022/06/20 03:20:46;;;;;;;8.68;1.80;;;17.60;88.10;;;;;;5015118;28;20022;-73
2022/06/20 03:23:32;;;;;;;6.90;1.55;;;17.50;88.30;;;;;;5015419;28;20076;-68
2022/06/20 03:26:01;;;;;;;6.75;1.60;;;17.50;88.70;;;;;;5015133;28;20025;-74
2022/06/20 03:28:29;;;;;;;5.35;1.50;;;17.50;88.90;;;;;;5014807;28;20045;-67
2022/06/20 03:30:58;;;;;;;7.60;1.80;;;17.50;89.10;;;;;;4997235;28;20403;-67
2022/06/20 03:33:23;;;;;;;6.32;1.77;;;17.50;89.10;;;;;;5014645;28;20030;-67
2022/06/20 03:35:55;;;;;;;9.90;2.03;;;17.60;89.30;;;;;;5014569;28;20038;-67
2022/06/20 03:38:23;;;;;;;6.53;1.88;;;17.60;88.90;;;;;;5014288;28;20088;-68
2022/06/20 03:40:49;;;;;;;7.82;2.40;;;17.60;89.20;;;;;;5014368;28;20112;-69
2022/06/20 03:43:19;;;;;;;9.38;2.15;;;17.60;89.30;;;;;;5014657;28;20114;-67
2022/06/20 03:46:00;;;;;;;9.68;1.77;;;17.50;89.60;;;;;;5014551;28;20026;-67
2022/06/20 03:48:36;;;;;;;9.23;2.33;;;17.60;89.60;;;;;;5014219;28;20032;-67
2022/06/20 03:51:13;;;;;;;9.65;2.28;;;17.60;89.80;;;;;;5014570;28;20029;-68
2022/06/20 03:53:44;;;;;;;12.10;3.00;;;17.60;90.00;;;;;;5014570;28;20049;-67
2022/06/20 03:56:15;;;;;;;9.07;2.70;;;17.60;90.10;;;;;;5014279;28;20117;-67
2022/06/20 03:58:48;;;;;;;11.90;3.03;;;17.50;90.20;;;;;;5014567;28;20033;-67
2022/06/20 04:01:31;;;;;;;16.27;3.00;;;17.60;90.20;;;;;;5014268;28;20036;-70
2022/06/20 04:04:06;;;;;;;9.68;3.00;;;17.50;90.30;;;;;;5013982;28;20018;-67
2022/06/20 04:06:37;;;;;;;10.88;3.15;;;17.60;90.70;;;;;;5014122;28;20030;-73
2022/06/20 04:12:25;;;;;;;12.27;3.20;;;17.50;90.50;;;;;;5014209;28;20044;-67
2022/06/20 04:14:57;;;;;;;10.02;2.38;;;17.50;90.50;;;;;;5014247;28;20022;-74
2022/06/20 04:21:02;;;;;;;12.15;2.50;;;17.50;90.50;;;;;;5013936;28;20037;-73
2022/06/20 04:23:35;;;;;;;7.93;2.25;;;17.50;90.40;;;;;;5013994;28;20033;-73
2022/06/20 04:26:14;;;;;;;10.05;2.63;;;17.50;90.30;;;;;;5014009;28;20484;-74
2022/06/20 04:29:01;;;;;;;7.50;2.53;;;17.50;90.20;;;;;;5014058;28;20076;-73
2022/06/20 04:31:50;;;;;;;9.63;1.98;;;17.60;90.10;;;;;;5013706;28;20459;-72
2022/06/20 04:34:25;;;;;;;11.32;2.13;;;17.60;90.10;;;;;;5013860;28;20073;-73
2022/06/20 04:37:00;;;;;;;9.77;2.20;;;17.60;90.00;;;;;;5013688;28;20030;-73
2022/06/20 04:39:44;;;;;;;9.65;2.67;;;17.60;90.10;;;;;;5013742;28;20543;-74
2022/06/20 04:42:31;;;;;;;9.55;1.77;;;17.60;89.90;;;;;;5013474;28;20065;-74
2022/06/20 04:45:02;;;;;;;8.48;1.85;;;17.60;89.80;;;;;;5013594;28;20061;-72
2022/06/20 04:47:48;;;;;;;10.13;2.07;;;17.60;89.50;;;;;;5013333;28;20064;-73
2022/06/20 04:50:25;;;;;;;9.80;2.28;;;17.60;90.00;;;;;;5012844;28;20283;-70
2022/06/20 04:52:53;;;;;;;5.45;1.70;;;17.60;89.90;;;;;;5013386;28;20471;-72
2022/06/20 04:55:22;;;;;;;10.30;2.00;;;17.60;90.00;;;;;;5013307;28;20036;-73
2022/06/20 04:57:54;;;;;;;8.05;2.08;;;17.60;90.00;;;;;;5013537;28;20026;-73
2022/06/20 05:00:23;;;;;;;8.53;2.40;;;17.60;90.20;;;;;;5013447;28;20022;-72
2022/06/20 05:02:50;;;;;;;9.70;2.03;;;17.60;90.10;;;;;;5013878;28;20053;-72
2022/06/20 05:05:19;;;;;;;5.78;1.50;;;17.60;90.00;;;;;;5012863;28;20534;-73
2022/06/20 05:07:46;;;;;;;5.70;1.38;;;17.60;90.10;;;;;;5011742;28;20018;-74
2022/06/20 05:10:19;;;;;;;9.55;1.95;;;17.50;90.00;;;;;;4996038;28;20029;-74
2022/06/20 05:12:59;;;;;;;7.75;1.45;;;17.50;89.80;;;;;;5013073;28;20022;-73
2022/06/20 05:15:36;;;;;;;6.68;1.90;;;17.60;90.00;;;;;;5012874;28;20109;-73
2022/06/20 05:18:26;;;;;;;15.50;2.22;;;17.60;89.30;;;;;;4995566;28;20030;-72
2022/06/20 05:21:06;;;;;;;8.95;1.67;;;17.70;87.70;;;;;;4995608;28;20451;-71
2022/06/20 05:23:39;;;;;;;7.45;1.17;;;17.90;86.80;;;;;;5013084;28;20118;-71
2022/06/20 05:26:07;;;;;;;8.27;1.52;;;18.00;86.00;;;;;;5013276;28;20297;-73
2022/06/20 05:28:36;;;;;;;5.25;1.42;;;18.10;85.60;;;;;;4995467;28;20098;-75
2022/06/20 05:31:03;;;;;;;6.60;1.20;;;18.10;85.90;;;;;;5020561;28;20037;-75
2022/06/20 05:33:36;;;;;;;8.23;1.60;;;17.90;86.20;;;;;;5027170;28;20340;-68
2022/06/20 05:36:10;;;;;;;8.75;1.33;;;17.80;86.50;;;;;;5030686;28;20041;-68
2022/06/20 05:38:46;;;;;;;5.07;1.33;;;17.80;87.10;;;;;;5035503;28;20013;-68
2022/06/20 05:41:15;;;;;;;5.78;1.48;;;17.90;86.70;;;;;;5030605;28;20409;-73
2022/06/20 05:43:41;;;;;;;6.88;1.48;;;18.20;86.10;;;;;;5028803;28;20045;-71
2022/06/20 05:46:36;;;;;;;4.75;1.13;;;18.30;85.60;;;;;;5030140;28;20026;-69
2022/06/20 05:49:06;;;;;;;5.63;1.48;;;18.60;86.00;;;;;;5023827;28;20036;-68
2022/06/20 05:51:38;;;;;;;5.80;1.20;;;18.70;85.20;;;;;;5031241;28;20088;-67
2022/06/20 05:54:17;;;;;;;7.25;1.50;;;18.60;84.20;;;;;;5029558;28;20026;-71
2022/06/20 05:56:47;;;;;;;5.60;1.23;;;18.60;84.20;;;;;;5027025;28;20056;-67
2022/06/20 05:59:36;;;;;;;4.40;0.93;;;18.80;84.70;;;;;;5009525;28;20036;-71
2022/06/20 06:02:15;;;;;;;6.85;1.48;;;18.80;84.00;;;;;;5033549;28;20740;-71
2022/06/20 06:04:51;;;;;;;7.05;1.88;;;18.90;83.70;;;;;;5034053;28;20041;-67
2022/06/20 06:07:26;;;;;;;4.45;1.00;;;18.90;83.80;;;;;;5042382;28;20025;-67
2022/06/20 06:10:02;;;;;;;6.70;1.13;;;19.00;83.80;;;;;;5041304;28;20025;-67
2022/06/20 06:12:40;;;;;;;6.20;1.42;;;18.90;82.90;;;;;;5033057;28;20108;-67
2022/06/20 06:15:16;;;;;;;6.65;1.40;;;19.10;83.00;;;;;;5033775;28;20071;-72
2022/06/20 06:17:50;;;;;;;5.75;1.48;;;19.20;82.60;;;;;;5035550;28;20072;-76
2022/06/20 06:20:21;;;;;;;6.63;1.60;;;19.30;82.60;;;;;;5035543;28;20032;-74
2022/06/20 06:22:51;;;;;;;9.45;1.60;;;19.30;81.80;;;;;;5035484;28;20022;-75
2022/06/20 06:25:28;;;;;;;6.50;1.30;;;19.30;81.80;;;;;;5034322;28;20018;-76
2022/06/20 06:28:11;;;;;;;5.85;1.38;;;19.30;81.30;;;;;;5035822;28;20475;-75
2022/06/20 06:30:51;;;;;;;8.88;1.67;;;19.30;81.20;;;;;;5035812;28;20036;-76
2022/06/20 06:33:39;;;;;;;6.82;1.23;;;19.40;81.30;;;;;;5035652;28;20026;-73
2022/06/20 06:36:15;;;;;;;5.93;1.65;;;19.40;80.70;;;;;;5035484;28;20073;-75
2022/06/20 06:38:48;;;;;;;5.10;1.38;;;19.40;80.70;;;;;;5035676;28;20018;-75
2022/06/20 06:41:22;;;;;;;6.57;1.38;;;19.50;81.10;;;;;;5035509;28;20041;-72
2022/06/20 06:43:51;;;;;;;5.78;1.17;;;19.60;80.50;;;;;;5034570;28;20030;-75
2022/06/20 06:46:38;;;;;;;4.30;0.80;;;19.70;80.20;;;;;;5035029;28;20183;-76
2022/06/20 06:49:43;;;;;;;5.68;1.13;;;19.70;80.50;;;;;;5035555;28;20494;-76
2022/06/20 06:52:25;;;;;;;6.80;1.42;;;19.80;79.70;;;;;;5035638;28;20024;-76
2022/06/20 06:54:59;;;;;;;6.25;1.10;;;19.90;79.00;;;;;;5035204;28;20025;-77
2022/06/20 06:57:42;;;;;;;6.65;1.48;;;20.10;79.10;;;;;;5035407;28;20033;-76
2022/06/20 07:00:27;;;;;;;;;;;20.20;78.60;;;;;;5035370;28;20080;-67
2022/06/20 07:03:01;;;;;;;8.60;1.65;;;20.30;77.60;;;;;;5034561;28;19916;-66
2022/06/20 07:05:35;;;;;;;5.00;1.50;;;20.30;78.10;;;;;;5035135;28;20075;-68
2022/06/20 07:08:13;;;;;;;5.93;1.42;;;20.40;78.10;;;;;;5035191;28;20017;-76
2022/06/20 07:11:02;;;;;;;7.03;1.65;;;20.40;78.70;;;;;;5034573;28;20051;-71
2022/06/20 07:13:34;;;;;;;5.50;1.48;;;20.40;76.70;;;;;;5034292;28;20109;-76
2022/06/20 07:16:02;;;;;;;5.05;1.02;;;20.40;75.60;;;;;;5034779;28;20131;-72
2022/06/20 07:18:46;;;;;;;4.50;1.38;;;20.40;74.50;;;;;;5035086;28;20578;-70
2022/06/20 07:21:21;;;;;;;5.70;1.20;;;20.50;74.40;;;;;;5034874;28;20032;-77
2022/06/20 07:23:50;;;;;;;4.53;1.33;;;20.50;74.20;;;;;;5034876;28;20022;-76
2022/06/20 07:26:18;;;;;;;6.38;1.38;;;20.60;73.60;;;;;;5034472;28;20013;-74
2022/06/20 07:28:55;;;;;;;5.47;1.27;;;20.70;73.60;;;;;;5034289;28;20049;-68
2022/06/20 07:31:37;;;;;;;4.40;1.23;;;20.70;72.70;;;;;;5034717;28;20025;-76
2022/06/20 07:34:08;;;;;;;5.38;1.33;;;20.70;73.00;;;;;;5034778;28;20025;-76
2022/06/20 07:36:46;;;;;;;5.60;1.20;;;20.80;73.40;;;;;;5034726;28;20402;-71
2022/06/20 07:39:23;;;;;;;5.05;1.70;;;20.80;74.00;;;;;;5035254;28;20029;-68
2022/06/20 07:42:01;;;;;;;5.20;1.10;;;20.90;74.60;;;;;;5034663;28;20045;-77
2022/06/20 07:44:35;;;;;;;5.22;1.35;;;21.00;74.40;;;;;;5035020;28;20065;-76
2022/06/20 07:47:24;;;;;;;4.28;1.00;;;21.00;74.00;;;;;;5035137;28;20055;-76
2022/06/20 07:49:55;;;;;;;4.63;1.10;;;21.10;71.90;;;;;;5035146;28;20021;-71
2022/06/20 07:52:29;;;;;;;3.70;1.20;;;21.20;71.50;;;;;;5017000;28;20018;-76
2022/06/20 07:54:59;;;;;;;4.78;0.88;;;21.20;71.00;;;;;;5016177;28;20025;-77
2022/06/20 07:57:35;;;;;;;6.32;1.58;;;21.20;69.60;;;;;;5034856;28;20033;-68
2022/06/20 08:00:23;;;;;;;3.90;0.95;;;21.30;70.30;;;;;;5034244;28;20386;-77
2022/06/20 08:03:01;;;;;;;3.15;1.23;;;21.30;70.70;;;;;;5034850;28;20030;-76
2022/06/20 08:05:41;;;;;;;7.93;1.73;;;21.20;70.00;;;;;;5034242;28;20034;-69
2022/06/20 08:08:19;;;;;;;7.47;1.70;;;21.30;70.40;;;;;;5034176;28;20018;-76
2022/06/20 08:10:46;;;;;;;5.00;1.00;;;21.20;69.70;;;;;;5033673;28;20033;-77
2022/06/20 08:13:28;;;;;;;4.15;1.35;;;21.30;70.80;;;;;;5034380;28;20029;-67
2022/06/20 08:16:23;;;;;;;5.03;1.58;;;21.40;70.50;;;;;;5034296;28;20064;-75
2022/06/20 08:18:49;;;;;;;3.88;1.17;;;21.40;69.60;;;;;;5020813;28;20095;-67
2022/06/20 08:21:33;;;;;;;6.68;1.30;;;21.60;68.60;;;;;;5033628;28;20033;-71
2022/06/20 08:24:07;;;;;;;7.35;1.30;;;21.60;68.40;;;;;;5033159;28;20030;-68
2022/06/20 08:26:41;;;;;;;3.22;1.20;;;21.70;67.40;;;;;;5033626;28;20032;-67
2022/06/20 08:29:21;;;;;;;5.00;1.33;;;21.70;67.20;;;;;;5033687;28;20022;-74
2022/06/20 08:31:52;;;;;;;6.22;1.25;;;21.80;67.10;;;;;;5031993;28;20079;-67
2022/06/20 08:34:20;;;;;;;4.27;1.03;;;21.80;68.00;;;;;;5013826;28;20466;-72
2022/06/20 08:36:55;;;;;;;4.95;1.08;;;21.80;67.20;;;;;;5014430;28;20038;-68
2022/06/20 08:39:29;;;;;;;4.07;1.30;;;21.90;66.90;;;;;;5030447;28;20032;-68
2022/06/20 08:42:31;;;;;;;4.90;1.30;;;22.00;66.90;;;;;;5033123;28;20044;-68
2022/06/20 08:45:18;;;;;;;5.53;1.98;;;22.00;67.50;;;;;;5032860;28;20032;-68
2022/06/20 08:48:16;;;;;;;3.90;1.50;;;22.00;67.80;;;;;;5033222;28;20112;-68
2022/06/20 08:51:00;;;;;;;4.53;1.35;;;22.00;69.70;;;;;;5014637;28;20034;-68
2022/06/20 08:53:55;;;;;;;6.88;1.60;;;22.10;67.60;;;;;;5022199;28;20021;-67
2022/06/20 08:56:45;;;;;;;4.07;1.48;;;22.10;67.40;;;;;;5015967;28;20120;-68
2022/06/20 08:59:25;;;;;;;5.80;1.42;;;22.10;66.70;;;;;;5032962;28;20067;-70
2022/06/20 09:02:05;;;;;;;3.83;1.00;;;22.20;66.90;;;;;;5032968;28;20033;-67
2022/06/20 09:04:39;;;;;;;6.68;1.83;;;22.20;68.00;;;;;;5033158;28;20045;-67
2022/06/20 09:07:33;;;;;;;4.00;1.38;;;22.20;68.10;;;;;;5031983;28;20451;-67
2022/06/20 09:10:30;;;;;;;4.20;1.20;;;22.20;66.40;;;;;;5032574;28;20077;-66
2022/06/20 09:13:12;;;;;;;6.70;1.20;;;22.30;67.30;;;;;;5032987;28;20033;-66
2022/06/20 09:16:27;;;;;;;3.45;1.17;;;22.30;65.60;;;;;;5032485;28;20429;-66
2022/06/20 09:19:08;;;;;;;5.60;1.60;;;22.30;65.20;;;;;;4933536;29;20031;-67
2022/06/20 09:21:45;;;;;;;4.60;1.55;;;22.30;63.50;;;;;;5022488;28;20045;-75
2022/06/20 09:24:48;;;;;;;4.20;1.63;;;22.30;66.40;;;;;;5032782;28;20471;-73
2022/06/20 09:27:41;;;;;;;4.18;1.35;;;22.40;66.70;;;;;;5032591;28;20474;-72
2022/06/20 09:30:13;;;;;;;3.55;1.30;;;22.40;64.20;;;;;;5032996;28;20527;-73
2022/06/20 09:33:10;;;;;;;4.65;1.10;;;22.40;65.30;;;;;;5031607;28;20072;-67
2022/06/20 09:36:19;;;;;;;3.00;1.02;;;22.40;62.50;;;;;;5021962;28;20025;-65
2022/06/20 09:39:17;;;;;;;4.05;1.35;;;22.40;63.80;;;;;;5036347;28;20485;-68
2022/06/20 09:42:10;;;;;;;3.92;1.40;;;22.40;64.20;;;;;;4988959;28;20236;-66
2022/06/20 09:45:03;;;;;;;4.63;1.58;;;22.40;63.80;;;;;;5035328;28;20056;-71
2022/06/20 09:47:46;;;;;;;6.20;1.70;;;22.40;62.80;;;;;;5024456;28;20061;-68
2022/06/20 09:50:18;;;;;;;6.47;1.77;;;22.40;64.20;;;;;;5032447;28;20467;-68
2022/06/20 09:53:04;;;;;;;7.65;1.77;;;22.40;64.20;;;;;;5032771;28;20057;-67
2022/06/20 09:55:38;;;;;;;4.60;1.92;;;22.40;64.60;;;;;;5033168;28;20064;-65
2022/06/20 09:58:18;;;;;;;4.68;1.83;;;22.50;64.60;;;;;;5022740;28;20029;-74
2022/06/20 10:01:21;;;;;;;5.78;1.33;;;22.50;66.00;;;;;;5034137;28;20037;-66
2022/06/20 10:03:58;;;;;;;5.10;1.55;;;22.50;64.30;;;;;;5029832;28;20022;-69
2022/06/20 10:06:57;;;;;;;3.95;1.30;;;22.50;63.40;;;;;;5035427;28;20030;-65
2022/06/20 10:09:57;;;;;;;5.72;1.60;;;22.50;63.80;;;;;;5035002;28;20025;-66
2022/06/20 10:12:49;;;;;;;5.72;1.92;;;22.50;63.40;;;;;;5023636;28;20132;-67
2022/06/20 10:15:37;;;;;;;5.28;1.60;;;22.50;63.40;;;;;;5027852;28;20030;-68
2022/06/20 10:18:35;;;;;;;3.97;1.63;;;22.50;63.20;;;;;;5032419;28;20041;-75
2022/06/20 10:21:16;;;;;;;6.70;1.75;;;22.60;63.30;;;;;;5033098;28;20040;-77
2022/06/20 10:23:52;;;;;;;6.93;1.67;;;22.50;62.40;;;;;;5031004;28;20025;-77
2022/06/20 10:26:55;;;;;;;8.05;1.73;;;22.50;65.30;;;;;;5034325;28;20048;-75
2022/06/20 10:29:25;;;;;;;5.25;1.75;;;22.60;64.60;;;;;;5029447;28;20042;-76
2022/06/20 10:32:09;;;;;;;5.88;1.52;;;22.60;64.00;;;;;;5031752;28;20025;-65
2022/06/20 10:34:41;;;;;;;4.70;1.15;;;22.60;63.00;;;;;;5032731;28;20426;-75
2022/06/20 10:37:19;;;;;;;;;;;22.60;63.10;;;;;;5028596;28;20041;-74
2022/06/20 10:40:01;;;;;;;6.25;2.13;;;22.60;63.70;;;;;;5033225;28;19909;-71
2022/06/20 10:42:33;;;;;;;5.88;1.88;;;22.60;67.10;;;;;;5031882;28;20030;-78
2022/06/20 10:45:24;;;;;;;4.68;1.50;;;22.70;65.40;;;;;;5034673;28;20497;-77
2022/06/20 10:48:08;;;;;;;3.78;1.60;;;22.60;62.40;;;;;;5014684;28;20057;-77
2022/06/20 10:50:47;;;;;;;3.85;1.40;;;22.70;62.30;;;;;;5028859;28;20117;-75
2022/06/20 10:53:27;;;;;;;5.65;1.77;;;22.70;62.70;;;;;;5034405;28;20029;-76
2022/06/20 10:56:02;;;;;;;4.38;1.40;;;22.70;61.30;;;;;;5033473;28;20038;-77
2022/06/20 10:58:46;;;;;;;6.97;1.77;;;22.70;63.90;;;;;;5034076;28;20533;-73
2022/06/20 11:01:37;;;;;;;3.90;1.48;;;22.70;66.50;;;;;;5035948;28;20044;-76
2022/06/20 11:04:21;;;;;;;5.28;1.50;;;22.70;63.60;;;;;;5014608;28;20041;-77
2022/06/20 11:07:02;;;;;;;5.28;1.80;;;22.70;61.50;;;;;;5031590;28;20017;-75
2022/06/20 11:09:58;;;;;;;3.95;0.93;;;22.70;60.80;;;;;;5027319;28;20029;-72
2022/06/20 11:12:40;;;;;;;6.40;1.35;;;22.80;61.70;;;;;;5034091;28;20033;-78
2022/06/20 11:15:33;;;;;;;4.10;1.55;;;22.80;63.70;;;;;;5015314;28;20057;-74
2022/06/20 11:18:13;;;;;;;;;;;22.70;60.90;;;;;;5033038;28;20120;-69
2022/06/20 11:21:05;;;;;;;2.97;1.35;;;22.70;60.40;;;;;;5032778;28;20394;-76
2022/06/20 11:23:43;;;;;;;5.57;1.27;;;22.60;60.40;;;;;;5024658;28;20022;-80
2022/06/20 11:26:32;;;;;;;4.65;1.75;;;22.70;60.10;;;;;;5023634;28;20498;-80
2022/06/20 11:29:21;;;;;;;5.85;1.60;;;22.60;60.70;;;;;;5029673;28;20387;-80
2022/06/20 11:31:47;;;;;;;4.07;1.33;;;22.70;61.80;;;;;;5024266;28;20544;-78
2022/06/20 11:34:28;;;;;;;4.63;1.67;;;22.70;62.10;;;;;;5030426;28;20025;-75
2022/06/20 11:37:15;;;;;;;6.47;1.58;;;22.70;59.80;;;;;;5033527;28;20045;-73
2022/06/20 11:40:04;;;;;;;5.80;1.35;;;22.70;62.50;;;;;;5032512;28;20017;-75
2022/06/20 11:43:08;;;;;;;5.40;1.73;;;22.70;63.60;;;;;;5030055;28;20364;-84
2022/06/20 11:45:39;;;;;;;7.85;1.75;;;22.80;62.30;;;;;;5032470;28;20111;-74
2022/06/20 11:48:16;;;;;;;2.97;1.30;;;22.70;61.80;;;;;;5029909;28;20075;-79
2022/06/20 11:51:17;;;;;;;5.05;1.63;;;22.70;60.60;;;;;;5033045;28;20064;-78
2022/06/20 11:54:12;;;;;;;6.32;1.60;;;22.70;62.20;;;;;;5032323;28;20382;-78
2022/06/20 11:57:15;;;;;;;6.72;1.73;;;22.70;62.60;;;;;;5032745;28;20072;-73
2022/06/20 12:00:03;;;;;;;4.78;1.52;;;22.70;63.60;;;;;;5008399;28;20025;-77
2022/06/20 12:02:53;;;;;;;4.85;1.50;;;22.70;61.80;;;;;;5021896;28;20395;-73
2022/06/20 12:05:19;;;;;;;6.47;1.58;;;22.70;64.10;;;;;;5031752;28;20056;-76
2022/06/20 12:07:56;;;;;;;7.60;1.85;;;22.70;62.20;;;;;;5015306;28;20111;-76
2022/06/20 12:10:37;;;;;;;5.25;1.85;;;22.70;61.00;;;;;;5030427;28;20021;-71
2022/06/20 12:13:30;;;;;;;10.32;1.98;;;22.70;62.90;;;;;;5004327;28;20033;-74
2022/06/20 12:16:24;;;;;;;5.22;1.48;;;22.70;64.00;;;;;;5021975;28;20367;-67
2022/06/20 12:25:04;;;;;;;5.63;1.60;;;22.70;64.20;;;;;;5030470;28;20087;-74
2022/06/20 12:27:30;;;;;;;7.22;1.95;;;22.80;65.60;;;;;;5032982;28;20022;-79
2022/06/20 12:29:55;;;;;;;5.55;1.50;;;22.80;64.80;;;;;;5030229;28;20038;-70
2022/06/20 12:32:28;;;;;;;8.85;1.70;;;22.80;65.30;;;;;;5026387;28;20462;-74
2022/06/20 12:35:05;;;;;;;9.30;2.05;;;22.80;63.20;;;;;;5027509;28;20028;-78
2022/06/20 12:37:55;;;;;;;6.07;1.65;;;22.90;64.00;;;;;;5025266;28;20533;-82
2022/06/20 12:40:36;;;;;;;7.55;2.08;;;23.00;63.50;;;;;;5022820;28;20041;-72
2022/06/20 12:43:23;;;;;;;9.85;1.70;;;23.00;63.00;;;;;;5030021;28;20041;-77
2022/06/20 12:46:01;;;;;;;7.13;1.42;;;23.00;62.30;;;;;;5030648;28;20475;-73
2022/06/20 12:49:04;;;;;;;6.82;1.90;;;22.80;61.40;;;;;;5031518;28;20029;-72
2022/06/20 12:51:54;;;;;;;4.18;1.70;;;22.90;63.70;;;;;;5027179;28;20030;-71
2022/06/20 12:54:50;;;;;;;7.55;2.03;;;22.90;63.80;;;;;;5025341;28;20558;-69
2022/06/20 12:57:40;;;;;;;8.55;1.75;;;22.90;62.80;;;;;;5027980;28;20103;-73
2022/06/20 13:00:31;;;;;;;7.38;1.77;;;22.90;62.40;;;;;;5030245;28;20029;-73
2022/06/20 13:03:08;;;;;;;7.35;2.00;;;22.90;61.80;;;;;;5027869;28;20037;-79
2022/06/20 13:05:55;;;;;;;6.70;2.00;;;22.90;63.20;;;;;;5025052;28;20029;-70
2022/06/20 13:09:01;;;;;;;7.63;1.90;;;23.00;64.00;;;;;;5030762;28;20148;-80
2022/06/20 13:11:42;;;;;;;7.53;2.00;;;23.00;62.90;;;;;;5028252;28;20034;-78
2022/06/20 13:14:28;;;;;;;6.45;1.90;;;23.00;63.20;;;;;;5028140;28;20029;-80
2022/06/20 13:17:23;;;;;;;7.45;2.00;;;23.10;62.90;;;;;;5008693;28;20037;-74
2022/06/20 13:20:06;;;;;;;6.15;1.67;;;23.00;63.00;;;;;;5028576;28;20051;-81
2022/06/20 13:23:09;;;;;;;9.57;2.30;;;23.10;63.00;;;;;;5030664;28;20029;-72
2022/06/20 13:25:46;;;;;;;6.50;2.13;;;23.00;61.80;;;;;;5030570;28;20121;-77
2022/06/20 13:28:23;;;;;;;7.28;1.92;;;23.00;61.90;;;;;;5029834;28;20101;-74
2022/06/20 13:31:11;;;;;;;8.57;2.50;;;23.00;63.00;;;;;;5030745;28;20026;-81
2022/06/20 13:33:49;;;;;;;8.82;2.25;;;23.00;63.10;;;;;;5028348;28;20049;-73
2022/06/20 13:36:42;;;;;;;8.30;2.28;;;23.10;63.70;;;;;;5029250;28;20494;-76
2022/06/20 13:39:34;;;;;;;7.88;1.77;;;23.00;61.50;;;;;;5027284;28;20026;-71
2022/06/20 13:42:13;;;;;;;4.28;1.85;;;23.00;62.50;;;;;;5027603;28;20037;-71
2022/06/20 13:44:56;;;;;;;7.70;1.90;;;23.10;63.20;;;;;;5029087;28;20057;-75
2022/06/20 13:47:46;;;;;;;4.68;1.58;;;23.10;64.40;;;;;;5030128;28;20104;-69
2022/06/20 13:50:42;;;;;;;11.20;2.45;;;23.10;63.10;;;;;;5030014;28;20025;-76
2022/06/20 13:53:14;;;;;;;9.77;2.40;;;23.10;62.20;;;;;;5021388;28;20033;-70
2022/06/20 13:55:50;;;;;;;8.50;1.80;;;23.10;62.60;;;;;;5028809;28;20080;-77
2022/06/20 13:58:24;;;;;;;5.78;1.95;;;23.10;63.40;;;;;;5030131;28;20112;-84
2022/06/20 14:00:56;;;;;;;7.53;1.83;;;23.10;62.70;;;;;;5028142;28;20551;-65